GB-0156 weather

CLOSED Cricklewood Aerodrome
London, England, United Kingdom

Public forecast

Using degrees Celsius for public forecast. Weather courtesy of forecast.io.

METAR (pilot weather report)

Closest report is RAF Northolt, 7.7 nm (14.2 km) W. Retrieved 2018/04/20 09:50 UTC (31 minutes ago):

EGWU 200950Z 31004KT CAVOK 21/13 Q1023 BLU NOSIG

TAF (pilot weather forecast)

Closest forecast is RAF Northolt, 7.7 nm (14.2 km) W. Retrieved 2018/04/20 09:00 UTC (1 hour ago):

TAF EGVN 200717Z 2009/2109 27005KT CAVOK= TAF EGWU 200734Z 2009/2103 32004KT CAVOK